Time;durP1;ratioP1;P1;durP2;ratioP2;P2;SDS_P1;SDS_P2;PMS_P1;PMS_P2;Temp;Humidity;BMP_temperature;BMP_pressure;BME280_temperature;BME280_humidity;BME280_pressure;Samples;Min_cycle;Max_cycle;Signal;HPM_P1;HPM_P2
2023/03/12 00:02:16;;;;;;;1.17;1.08;;;;;;;20.03;30.09;101178.34;5005029;28;20041;-79
2023/03/12 00:04:41;;;;;;;1.20;1.10;;;;;;;20.03;30.32;101183.66;5001428;28;20080;-79
2023/03/12 00:07:07;;;;;;;1.02;1.00;;;;;;;19.89;30.29;101161.41;5031938;28;20724;-80
2023/03/12 00:09:38;;;;;;;0.88;0.85;;;;;;;20.02;30.23;101182.00;4985596;28;20041;-79
2023/03/12 00:12:04;;;;;;;1.23;0.75;;;;;;;19.88;30.30;101165.03;5020133;28;20044;-80
2023/03/12 00:14:30;;;;;;;1.40;1.25;;;;;;;19.91;30.26;101172.63;4983118;28;20037;-79
2023/03/12 00:16:56;;;;;;;0.82;0.80;;;;;;;19.90;30.31;101157.75;5035583;28;20045;-80
2023/03/12 00:19:21;;;;;;;1.45;1.00;;;;;;;19.91;30.26;101167.34;5004646;28;20053;-79
2023/03/12 00:21:47;;;;;;;0.73;0.73;;;;;;;19.94;30.40;101170.66;5033925;28;20036;-78
2023/03/12 00:24:12;;;;;;;1.15;1.08;;;;;;;19.87;30.20;101160.75;5000906;28;20038;-79
2023/03/12 00:26:38;;;;;;;0.70;0.70;;;;;;;19.87;30.28;101154.66;5032521;28;20057;-79
2023/03/12 00:29:04;;;;;;;0.80;0.80;;;;;;;19.89;30.35;101163.22;5002862;28;20044;-80
2023/03/12 00:31:31;;;;;;;1.15;1.05;;;;;;;19.83;30.34;101151.53;5040674;28;20037;-80
2023/03/12 00:33:59;;;;;;;0.90;0.90;;;;;;;19.90;30.45;101157.75;4980158;28;20046;-79
2023/03/12 00:36:27;;;;;;;0.88;0.88;;;;;;;19.83;30.30;101143.59;5030904;28;20056;-79
2023/03/12 00:38:54;;;;;;;1.30;1.13;;;;;;;19.91;30.49;101148.84;4998793;28;21415;-79
2023/03/12 00:41:21;;;;;;;0.88;0.88;;;;;;;19.88;30.29;101145.72;5027286;28;20033;-81
2023/03/12 00:43:48;;;;;;;1.80;1.10;;;;;;;19.90;30.29;101152.47;5023843;28;20069;-79
2023/03/12 00:46:14;;;;;;;0.80;0.65;;;;;;;19.87;30.38;101149.34;4994863;28;20071;-80
2023/03/12 00:48:39;;;;;;;0.90;0.90;;;;;;;19.87;30.37;101147.53;5033719;28;20041;-79
2023/03/12 00:51:06;;;;;;;1.70;1.00;;;;;;;19.88;30.30;101145.72;4998053;28;20110;-79
2023/03/12 00:53:31;;;;;;;1.08;1.05;;;;;;;19.84;30.46;101141.78;5036886;28;20036;-80
2023/03/12 00:55:57;;;;;;;1.45;1.10;;;;;;;19.89;30.30;101156.13;4999453;28;20050;-79
2023/03/12 00:58:22;;;;;;;1.05;1.00;;;;;;;19.88;30.43;101145.72;5034260;28;20066;-80
2023/03/12 01:00:48;;;;;;;0.88;0.77;;;;;;;19.86;30.29;101148.53;5001673;28;20041;-80
2023/03/12 01:03:14;;;;;;;0.80;0.80;;;;;;;19.82;30.49;101138.47;5020357;28;20083;-80
2023/03/12 01:05:40;;;;;;;1.08;1.00;;;;;;;19.85;30.44;101133.69;4981247;28;20037;-79
2023/03/12 01:08:07;;;;;;;1.25;0.90;;;;;;;19.83;30.33;101138.31;5002702;28;20036;-79
2023/03/12 01:10:34;;;;;;;0.95;0.90;;;;;;;19.86;30.45;101139.78;4997687;28;20030;-80
2023/03/12 01:12:59;;;;;;;1.60;0.90;;;;;;;19.64;30.53;101122.03;5036077;28;20223;-79
2023/03/12 01:15:26;;;;;;;0.93;0.85;;;;;;;19.77;30.55;101139.00;4994063;28;20495;-80
2023/03/12 01:17:52;;;;;;;1.23;1.10;;;;;;;19.82;30.46;101144.59;5038244;28;20033;-79
2023/03/12 01:20:17;;;;;;;1.23;1.05;;;;;;;19.79;30.38;101136.19;4996665;28;20049;-79
2023/03/12 01:22:43;;;;;;;1.05;0.95;;;;;;;19.81;30.25;101131.56;5032845;28;20060;-79
2023/03/12 01:25:09;;;;;;;1.27;0.93;;;;;;;19.79;30.43;101130.91;4970225;28;21397;-80
2023/03/12 01:27:35;;;;;;;1.10;0.98;;;;;;;19.83;30.46;101135.66;5017892;28;20041;-79
2023/03/12 01:30:01;;;;;;;1.27;1.00;;;;;;;19.84;30.40;101142.59;4997653;28;20045;-79
2023/03/12 01:32:26;;;;;;;0.88;0.85;;;;;;;19.77;30.42;101123.16;5021740;28;20050;-80
2023/03/12 01:34:52;;;;;;;0.80;0.80;;;;;;;19.82;30.46;101130.56;4996566;28;20051;-79
2023/03/12 01:37:18;;;;;;;1.25;1.10;;;;;;;19.83;30.41;101130.38;5030944;28;20091;-79
2023/03/12 01:39:43;;;;;;;1.02;0.90;;;;;;;19.79;30.54;101125.63;5010760;28;20046;-79
2023/03/12 01:42:09;;;;;;;1.27;1.02;;;;;;;19.82;30.41;101128.75;4992389;28;20099;-79
2023/03/12 01:44:59;;;;;;;1.20;0.85;;;;;;;19.76;30.36;101113.59;5036393;28;20025;-79
2023/03/12 01:47:25;;;;;;;;;;;;;;;19.81;30.43;101118.34;4997578;28;20101;-80
2023/03/12 01:49:54;;;;;;;1.27;1.17;;;;;;;19.81;30.51;101119.16;5025046;28;19925;-80
2023/03/12 01:52:26;;;;;;;1.30;0.93;;;;;;;19.72;30.36;101101.69;4998323;28;20063;-81
2023/03/12 01:55:10;;;;;;;1.10;1.00;;;;;;;19.78;30.46;101111.59;5036033;28;20418;-80
2023/03/12 01:57:47;;;;;;;1.17;1.08;;;;;;;19.81;30.43;101111.22;4998715;28;20068;-80
2023/03/12 02:00:18;;;;;;;0.60;0.60;;;;;;;19.82;30.41;101112.06;5039563;28;20029;-79
2023/03/12 02:02:44;;;;;;;0.75;0.75;;;;;;;19.74;30.30;101093.59;5018356;28;20025;-80
2023/03/12 02:05:29;;;;;;;1.08;0.90;;;;;;;19.75;30.54;101098.72;5019366;28;20053;-80
2023/03/12 02:07:56;;;;;;;1.45;1.35;;;;;;;19.72;30.47;101096.41;5020211;28;20041;-79
2023/03/12 02:10:22;;;;;;;1.50;1.00;;;;;;;19.77;30.55;101093.25;5032341;28;20043;-79
2023/03/12 02:12:48;;;;;;;0.70;0.70;;;;;;;19.79;30.53;101091.28;5010597;28;20117;-79
2023/03/12 02:15:13;;;;;;;2.30;1.13;;;;;;;19.67;30.45;101077.59;5020103;28;20474;-79
2023/03/12 02:17:39;;;;;;;1.50;0.98;;;;;;;19.73;30.65;101082.19;5005380;28;20018;-79
2023/03/12 02:20:17;;;;;;;1.25;0.98;;;;;;;19.75;30.58;101093.44;5020849;28;20044;-80
2023/03/12 02:22:48;;;;;;;2.30;1.20;;;;;;;19.76;30.65;101088.97;4999031;28;20293;-79
2023/03/12 02:25:39;;;;;;;0.82;0.73;;;;;;;19.73;30.59;101074.25;5023609;28;20057;-80
2023/03/12 02:28:08;;;;;;;1.23;0.88;;;;;;;19.78;30.50;101082.53;5040093;28;20053;-79
2023/03/12 02:30:35;;;;;;;0.95;0.80;;;;;;;19.72;30.59;101079.72;5007961;28;20021;-79
2023/03/12 02:33:05;;;;;;;0.88;0.85;;;;;;;19.66;30.65;101060.13;5029943;28;20275;-79
2023/03/12 02:35:32;;;;;;;1.60;0.75;;;;;;;19.74;30.46;101062.69;5015537;28;20021;-79
2023/03/12 02:37:57;;;;;;;1.00;1.00;;;;;;;19.70;30.47;101052.66;5004211;28;20103;-79
2023/03/12 02:40:37;;;;;;;1.75;1.20;;;;;;;19.67;30.83;101051.19;5002511;28;20041;-80
2023/03/12 02:43:05;;;;;;;;;;;;;;;19.74;30.61;101061.88;5021149;28;20046;-78
2023/03/12 02:45:31;;;;;;;0.80;0.80;;;;;;;19.69;30.74;101062.41;5007929;28;19913;-78
2023/03/12 02:47:57;;;;;;;1.00;0.95;;;;;;;19.68;30.56;101052.84;4991308;28;20373;-78
2023/03/12 02:50:23;;;;;;;1.13;1.08;;;;;;;19.74;30.58;101057.41;5018575;28;20060;-78
2023/03/12 02:52:49;;;;;;;0.80;0.73;;;;;;;19.70;30.50;101055.28;4983728;28;20033;-79
2023/03/12 02:55:14;;;;;;;1.23;1.13;;;;;;;19.70;30.65;101044.72;5018695;28;20034;-78
2023/03/12 02:57:42;;;;;;;1.10;0.85;;;;;;;19.68;30.70;101049.38;4994882;28;20062;-79
2023/03/12 03:00:12;;;;;;;0.65;0.65;;;;;;;19.67;30.53;101045.91;5040366;28;20034;-78
2023/03/12 03:02:41;;;;;;;2.00;1.10;;;;;;;19.71;30.62;101035.81;4992962;28;20040;-78
2023/03/12 03:05:08;;;;;;;1.00;0.90;;;;;;;19.67;30.54;101037.97;5010795;28;20048;-78
2023/03/12 03:07:34;;;;;;;1.05;1.05;;;;;;;19.67;30.71;101037.97;4992714;28;20033;-79
2023/03/12 03:10:03;;;;;;;1.55;1.25;;;;;;;19.64;30.61;101026.94;5014581;28;20064;-78
2023/03/12 03:12:30;;;;;;;0.60;0.60;;;;;;;19.63;30.85;101027.94;4983541;28;20548;-78
2023/03/12 03:14:56;;;;;;;0.77;0.75;;;;;;;19.66;30.47;101028.41;5022153;28;20048;-78
2023/03/12 03:17:23;;;;;;;0.88;0.80;;;;;;;19.69;30.65;101022.78;4999314;28;20101;-78
2023/03/12 03:19:52;;;;;;;0.80;0.80;;;;;;;19.71;30.54;101022.59;5032730;28;20042;-78
2023/03/12 03:22:20;;;;;;;0.93;0.80;;;;;;;19.62;30.66;101013.91;4996195;28;20037;-77
2023/03/12 03:24:46;;;;;;;0.93;0.93;;;;;;;19.66;30.60;101015.19;5049455;28;20086;-79
2023/03/12 03:27:12;;;;;;;1.02;0.90;;;;;;;19.62;30.61;101008.63;4999257;28;20033;-79
2023/03/12 03:29:37;;;;;;;0.88;0.73;;;;;;;19.61;30.71;101002.53;5029079;28;20034;-79
2023/03/12 03:32:04;;;;;;;0.73;0.73;;;;;;;19.67;30.57;101010.75;4996530;28;20053;-79
2023/03/12 03:34:29;;;;;;;0.90;0.90;;;;;;;19.67;30.64;101003.63;5034314;28;20040;-78
2023/03/12 03:36:55;;;;;;;0.60;0.60;;;;;;;19.62;30.73;101000.69;4996645;28;20041;-79
2023/03/12 03:39:22;;;;;;;0.82;0.82;;;;;;;19.64;30.71;101004.00;5021563;28;20101;-79
2023/03/12 03:41:47;;;;;;;0.70;0.70;;;;;;;19.61;30.72;101002.53;4977981;28;21224;-79
2023/03/12 03:44:17;;;;;;;0.68;0.50;;;;;;;19.66;30.67;101001.16;5005976;28;20038;-79
2023/03/12 03:46:43;;;;;;;0.55;0.55;;;;;;;19.57;30.66;100982.75;5035288;28;20065;-79
2023/03/12 03:49:10;;;;;;;2.92;0.68;;;;;;;19.66;30.64;100988.78;4995357;28;20025;-79
2023/03/12 03:51:40;;;;;;;1.00;0.85;;;;;;;19.52;30.59;100963.91;5016626;28;20041;-79
2023/03/12 03:54:08;;;;;;;1.75;0.63;;;;;;;19.57;30.66;100979.28;5003382;28;20038;-78
2023/03/12 03:56:34;;;;;;;0.80;0.80;;;;;;;19.53;30.77;100970.00;5039799;28;20049;-78
2023/03/12 03:59:02;;;;;;;0.90;0.88;;;;;;;19.53;30.77;100965.53;4982180;28;20038;-77
2023/03/12 04:01:30;;;;;;;0.55;0.55;;;;;;;19.58;30.68;100976.47;5023231;28;20066;-78
2023/03/12 04:03:57;;;;;;;0.90;0.90;;;;;;;19.61;30.58;100972.63;4992275;28;20048;-78
2023/03/12 04:06:23;;;;;;;0.70;0.70;;;;;;;19.53;30.59;100954.16;5019472;28;20041;-79
2023/03/12 04:08:48;;;;;;;1.77;0.68;;;;;;;19.58;30.66;100968.53;4986663;28;20372;-80
2023/03/12 04:11:18;;;;;;;1.35;1.08;;;;;;;19.58;30.69;100967.72;5037831;28;20033;-79
2023/03/12 04:13:45;;;;;;;1.38;0.63;;;;;;;19.54;30.51;100963.75;5000944;28;20049;-78
2023/03/12 04:16:13;;;;;;;0.57;0.57;;;;;;;19.59;30.60;100953.50;5034066;28;20029;-79
2023/03/12 04:18:39;;;;;;;0.77;0.77;;;;;;;19.68;30.52;100965.66;5002155;28;20041;-79
2023/03/12 04:21:07;;;;;;;0.65;0.65;;;;;;;19.66;30.56;100961.53;5028163;28;20030;-78
2023/03/12 04:23:34;;;;;;;2.58;1.10;;;;;;;19.61;30.56;100956.78;5002231;28;20040;-79
2023/03/12 04:26:00;;;;;;;0.73;0.73;;;;;;;19.61;30.64;100943.59;5041446;28;20022;-81
2023/03/12 04:28:28;;;;;;;0.60;0.60;;;;;;;19.50;30.77;100926.28;4994538;28;20026;-79
2023/03/12 04:30:59;;;;;;;0.80;0.80;;;;;;;19.62;30.63;100934.66;5022364;28;20045;-79
2023/03/12 04:33:31;;;;;;;0.43;0.43;;;;;;;19.55;30.64;100916.03;5004228;28;20459;-79
2023/03/12 04:35:57;;;;;;;0.80;0.75;;;;;;;19.55;30.53;100926.59;5038381;28;20038;-78
2023/03/12 04:38:24;;;;;;;0.73;0.73;;;;;;;19.52;30.58;100918.16;4969265;28;20053;-78
2023/03/12 04:41:02;;;;;;;1.10;0.85;;;;;;;19.59;30.52;100929.72;5025571;28;20120;-78
2023/03/12 04:43:29;;;;;;;1.15;0.98;;;;;;;19.57;30.65;100934.38;5024078;28;20043;-78
2023/03/12 04:45:55;;;;;;;1.30;0.77;;;;;;;19.57;30.54;100934.38;5035347;28;20038;-78
2023/03/12 04:48:21;;;;;;;1.00;0.88;;;;;;;19.54;30.70;100918.84;4997734;28;20041;-78
2023/03/12 04:50:49;;;;;;;0.82;0.82;;;;;;;19.54;30.67;100917.03;5037254;28;20048;-80
2023/03/12 04:53:15;;;;;;;1.08;0.80;;;;;;;19.56;30.69;100922.94;4985559;28;20661;-80
2023/03/12 04:55:41;;;;;;;0.90;0.90;;;;;;;19.55;30.72;100925.78;5016244;28;20036;-79
2023/03/12 04:58:07;;;;;;;1.27;1.00;;;;;;;19.58;30.57;100920.97;5000731;28;20495;-78
2023/03/12 05:00:34;;;;;;;0.85;0.85;;;;;;;19.53;30.63;100911.88;5032221;28;20030;-79
2023/03/12 05:02:59;;;;;;;1.08;0.85;;;;;;;19.53;30.65;100904.78;4983048;28;20033;-79
2023/03/12 05:05:25;;;;;;;1.02;0.82;;;;;;;19.52;30.40;100891.75;5037938;28;20068;-78
2023/03/12 05:07:51;;;;;;;1.20;0.82;;;;;;;19.52;30.64;100892.59;5019704;28;20408;-78
2023/03/12 05:10:16;;;;;;;0.70;0.70;;;;;;;19.51;30.62;100888.28;5024861;28;20064;-78
2023/03/12 05:12:42;;;;;;;0.85;0.80;;;;;;;19.45;30.51;100886.38;5010828;28;20426;-78
2023/03/12 05:15:08;;;;;;;0.90;0.90;;;;;;;19.53;30.69;100888.13;5029437;28;20048;-79
2023/03/12 05:17:34;;;;;;;0.85;0.85;;;;;;;19.54;30.69;100882.69;5013457;28;20033;-79
2023/03/12 05:20:00;;;;;;;2.15;0.88;;;;;;;19.49;30.61;100868.34;5004283;28;20545;-81
2023/03/12 05:22:26;;;;;;;1.00;0.70;;;;;;;19.41;30.53;100863.13;5016584;28;20049;-80
2023/03/12 05:24:52;;;;;;;1.10;1.00;;;;;;;19.51;30.76;100875.09;4982644;28;20073;-80
2023/03/12 05:27:18;;;;;;;1.25;1.15;;;;;;;19.49;30.68;100865.69;5049633;28;20033;-80
2023/03/12 05:29:44;;;;;;;0.82;0.80;;;;;;;19.46;30.58;100861.59;4983892;28;20052;-80
2023/03/12 05:32:10;;;;;;;1.10;0.82;;;;;;;19.55;30.62;100852.63;5040088;28;20042;-81
2023/03/12 05:34:35;;;;;;;0.98;0.90;;;;;;;19.69;30.36;100853.69;4979626;28;20038;-81
2023/03/12 05:37:01;;;;;;;1.15;1.05;;;;;;;19.67;30.10;100825.81;5023509;28;20087;-80
2023/03/12 05:39:28;;;;;;;1.58;0.98;;;;;;;19.86;30.02;100841.16;4982909;28;20148;-80
2023/03/12 05:41:58;;;;;;;1.15;1.05;;;;;;;19.94;30.05;100850.84;5014135;28;20152;-81
2023/03/12 05:44:25;;;;;;;1.13;1.00;;;;;;;19.92;30.04;100846.53;4970032;28;20056;-80
2023/03/12 05:46:53;;;;;;;0.63;0.63;;;;;;;19.90;30.12;100845.91;5023892;28;20513;-80
2023/03/12 05:49:22;;;;;;;1.27;1.03;;;;;;;19.85;30.22;100850.91;4996942;28;20038;-80
2023/03/12 05:51:49;;;;;;;1.05;0.95;;;;;;;19.85;30.25;100842.97;5034145;28;20053;-80
2023/03/12 05:54:16;;;;;;;0.68;0.68;;;;;;;19.82;30.23;100853.09;4984648;28;20121;-80
2023/03/12 05:56:42;;;;;;;1.20;1.10;;;;;;;19.83;30.14;100852.91;5031465;28;20058;-80
2023/03/12 05:59:09;;;;;;;0.88;0.88;;;;;;;19.86;30.17;100846.44;4996732;28;20279;-80
2023/03/12 06:01:36;;;;;;;1.35;0.93;;;;;;;19.75;30.35;100831.00;5030851;28;20036;-81
2023/03/12 06:04:04;;;;;;;1.00;0.85;;;;;;;19.80;30.25;100833.97;4981212;28;20648;-81
2023/03/12 06:06:31;;;;;;;0.90;0.90;;;;;;;19.83;30.30;100829.13;5033493;28;20030;-80
2023/03/12 06:08:58;;;;;;;1.48;1.02;;;;;;;19.81;30.28;100822.38;4987165;28;20379;-81
2023/03/12 06:11:23;;;;;;;1.15;1.02;;;;;;;19.73;30.21;100814.50;5032865;28;20030;-81
2023/03/12 06:13:49;;;;;;;1.33;1.20;;;;;;;19.75;30.23;100818.66;5005049;28;20037;-81
2023/03/12 06:16:19;;;;;;;1.25;1.15;;;;;;;19.77;30.27;100818.47;5034067;28;20122;-81
2023/03/12 06:18:45;;;;;;;1.50;1.07;;;;;;;19.67;30.33;100802.84;5007093;28;20033;-81
2023/03/12 06:21:16;;;;;;;0.90;0.85;;;;;;;19.64;30.43;100800.56;5034990;28;20017;-80
2023/03/12 06:23:44;;;;;;;0.93;0.93;;;;;;;19.70;30.37;100806.94;5006556;28;20033;-81
2023/03/12 06:26:13;;;;;;;;;;;;;;;19.77;30.27;100821.09;5042581;28;20044;-80
2023/03/12 06:28:39;;;;;;;0.77;0.77;;;;;;;19.70;30.35;100818.34;5005368;28;21591;-80
2023/03/12 06:31:06;;;;;;;0.93;0.93;;;;;;;19.67;30.52;100816.06;5037701;28;20041;-80
2023/03/12 06:33:32;;;;;;;1.25;0.90;;;;;;;19.60;30.38;100797.47;5001801;28;20033;-81
2023/03/12 06:35:59;;;;;;;1.38;1.25;;;;;;;19.68;30.30;100811.59;5039047;28;20083;-79
2023/03/12 06:38:25;;;;;;;0.75;0.75;;;;;;;19.64;30.56;100797.13;4989518;28;20071;-78
2023/03/12 06:40:59;;;;;;;1.35;1.13;;;;;;;19.58;30.54;100793.38;5029043;28;20085;-78
2023/03/12 06:43:27;;;;;;;0.80;0.80;;;;;;;19.55;30.29;100791.06;5010763;28;20033;-78
2023/03/12 06:45:54;;;;;;;0.80;0.80;;;;;;;19.64;30.46;100811.13;5011099;28;20056;-78
2023/03/12 06:48:20;;;;;;;0.90;0.90;;;;;;;19.63;30.46;100804.22;5032857;28;20061;-78
2023/03/12 06:50:46;;;;;;;1.17;1.08;;;;;;;19.68;30.26;100819.53;4988240;28;20041;-79
2023/03/12 06:53:11;;;;;;;1.50;1.10;;;;;;;19.58;30.36;100817.97;5017313;28;20048;-78
2023/03/12 06:55:37;;;;;;;1.55;0.98;;;;;;;19.63;30.43;100833.28;4995290;28;20037;-78
2023/03/12 06:58:03;;;;;;;1.42;1.33;;;;;;;19.64;30.38;100832.28;5033921;28;20769;-82
2023/03/12 07:00:29;;;;;;;1.17;1.08;;;;;;;19.61;30.70;100833.47;4999627;28;20057;-79
2023/03/12 07:02:55;;;;;;;1.25;1.20;;;;;;;19.54;30.18;100831.69;5033448;28;20051;-78
2023/03/12 07:05:22;;;;;;;1.60;1.15;;;;;;;19.66;30.32;100848.75;4985749;28;20435;-79
2023/03/12 07:07:48;;;;;;;1.10;1.00;;;;;;;19.59;30.40;100850.47;5033638;28;20493;-79
2023/03/12 07:10:13;;;;;;;1.35;1.25;;;;;;;19.49;30.53;100853.31;5005226;28;20044;-79
2023/03/12 07:12:39;;;;;;;1.55;1.00;;;;;;;19.59;30.43;100863.69;5002532;28;20041;-79
2023/03/12 07:15:05;;;;;;;1.67;1.20;;;;;;;19.49;30.40;100847.22;4986466;28;20057;-80
2023/03/12 07:17:31;;;;;;;1.42;1.33;;;;;;;19.56;30.47;100859.56;5001728;28;20034;-78
2023/03/12 07:19:56;;;;;;;1.17;1.08;;;;;;;19.60;30.43;100862.69;4996352;28;20626;-79
2023/03/12 07:22:22;;;;;;;1.30;1.20;;;;;;;19.51;30.46;100853.13;5033260;28;20366;-78
2023/03/12 07:24:47;;;;;;;1.77;0.98;;;;;;;19.56;30.51;100856.91;5002252;28;20045;-79
2023/03/12 07:27:13;;;;;;;1.35;1.02;;;;;;;19.64;30.30;100860.50;5039318;28;20034;-79
2023/03/12 07:29:39;;;;;;;1.17;1.08;;;;;;;19.67;30.27;100846.94;4999862;28;20049;-79
2023/03/12 07:32:04;;;;;;;1.13;1.08;;;;;;;19.81;30.17;100846.97;5044674;28;20049;-79
2023/03/12 07:34:30;;;;;;;0.95;0.85;;;;;;;20.13;29.66;100843.22;4993835;28;20053;-79
2023/03/12 07:36:55;;;;;;;1.15;1.00;;;;;;;20.57;29.09;100833.66;5042216;28;20040;-79
2023/03/12 07:39:21;;;;;;;0.90;0.90;;;;;;;21.14;28.20;100812.50;5010376;28;20038;-82
2023/03/12 07:41:46;;;;;;;1.20;1.02;;;;;;;21.50;28.01;100819.59;5036535;28;20044;-80
2023/03/12 07:44:12;;;;;;;1.50;1.40;;;;;;;21.47;27.85;100796.97;5021446;28;20033;-79
2023/03/12 07:46:38;;;;;;;1.60;1.08;;;;;;;21.49;28.05;100810.03;5009854;28;20033;-78
2023/03/12 07:49:03;;;;;;;1.40;1.27;;;;;;;21.44;27.86;100809.78;5026772;28;20364;-79
2023/03/12 07:51:29;;;;;;;1.20;1.10;;;;;;;21.24;28.28;100810.41;5003196;28;20107;-80
2023/03/12 07:53:55;;;;;;;1.80;1.25;;;;;;;21.18;28.58;100807.66;5037508;28;20037;-79
2023/03/12 07:56:20;;;;;;;1.17;1.08;;;;;;;21.07;28.51;100785.97;5010911;28;20041;-79
2023/03/12 07:58:46;;;;;;;1.33;1.20;;;;;;;21.02;28.63;100787.56;5033481;28;20058;-81
2023/03/12 08:01:11;;;;;;;1.50;1.40;;;;;;;20.99;28.77;100785.28;4990220;28;20033;-81
2023/03/12 08:03:37;;;;;;;1.20;1.05;;;;;;;20.80;29.01;100769.00;5023038;28;20063;-81
2023/03/12 08:06:04;;;;;;;1.38;1.17;;;;;;;20.85;29.27;100788.81;5005186;28;20046;-80
2023/03/12 08:08:30;;;;;;;1.15;1.10;;;;;;;20.75;29.24;100773.22;5040389;28;20040;-81
2023/03/12 08:10:57;;;;;;;1.58;1.45;;;;;;;20.68;29.34;100778.44;4989945;28;20184;-81
2023/03/12 08:13:23;;;;;;;1.30;1.17;;;;;;;20.64;29.54;100778.97;5040989;28;20056;-81
2023/03/12 08:15:50;;;;;;;1.30;1.20;;;;;;;20.60;29.56;100770.59;5004762;28;20466;-81
2023/03/12 08:18:16;;;;;;;1.63;1.20;;;;;;;20.66;29.49;100764.59;5037712;28;20033;-81
2023/03/12 08:20:42;;;;;;;0.93;0.90;;;;;;;20.58;29.47;100766.50;4989368;28;20044;-81
2023/03/12 08:23:07;;;;;;;1.73;1.15;;;;;;;20.60;29.48;100770.59;5039839;28;20041;-81
2023/03/12 08:25:33;;;;;;;1.42;1.33;;;;;;;20.72;29.29;100765.66;4973099;28;20041;-81
2023/03/12 08:27:58;;;;;;;1.13;1.00;;;;;;;20.72;29.34;100761.19;5025947;28;20037;-81
2023/03/12 08:30:24;;;;;;;2.05;1.58;;;;;;;20.85;29.28;100762.34;5002410;28;20044;-82
2023/03/12 08:32:49;;;;;;;1.30;1.20;;;;;;;20.84;29.17;100760.72;5039132;28;20048;-82
2023/03/12 08:35:15;;;;;;;0.93;0.93;;;;;;;20.89;29.05;100753.00;5014153;28;20029;-82
2023/03/12 08:37:41;;;;;;;1.30;1.20;;;;;;;20.68;29.37;100744.06;5040125;28;20041;-83
2023/03/12 08:40:11;;;;;;;1.83;1.20;;;;;;;20.71;29.12;100743.66;4998611;28;20060;-83
2023/03/12 08:42:43;;;;;;;1.77;1.25;;;;;;;20.73;29.43;100748.78;5025348;28;20033;-80
2023/03/12 08:45:11;;;;;;;1.50;1.00;;;;;;;20.67;29.55;100742.41;5002749;28;20549;-81
2023/03/12 08:47:40;;;;;;;1.38;1.27;;;;;;;20.65;29.72;100731.19;5023267;28;20032;-80
2023/03/12 08:50:06;;;;;;;1.33;1.00;;;;;;;20.56;29.82;100705.84;5034616;28;20059;-79
2023/03/12 08:52:32;;;;;;;1.30;1.20;;;;;;;20.60;29.77;100703.66;4986220;28;20559;-81
2023/03/12 08:54:58;;;;;;;1.15;1.05;;;;;;;20.55;29.70;100706.84;5038469;28;20119;-81
2023/03/12 08:57:23;;;;;;;1.23;0.98;;;;;;;20.54;29.99;100707.06;4999655;28;20057;-81
2023/03/12 08:59:48;;;;;;;1.20;1.10;;;;;;;20.52;29.80;100702.75;5028570;28;20042;-80
2023/03/12 09:02:14;;;;;;;1.58;1.48;;;;;;;20.53;29.83;100700.94;4980561;28;20033;-80
2023/03/12 09:04:40;;;;;;;1.30;1.20;;;;;;;20.49;29.88;100697.03;5034020;28;20052;-81
2023/03/12 09:07:05;;;;;;;1.65;1.10;;;;;;;20.41;29.71;100671.50;4997910;28;20053;-81
2023/03/12 09:09:31;;;;;;;1.38;1.17;;;;;;;20.45;30.02;100674.59;5031083;28;20057;-81
2023/03/12 09:11:56;;;;;;;1.02;1.00;;;;;;;20.42;29.96;100661.75;5000200;28;20034;-80
2023/03/12 09:14:22;;;;;;;1.40;1.30;;;;;;;20.34;30.03;100648.63;5022428;28;20048;-81
2023/03/12 09:16:48;;;;;;;1.30;1.20;;;;;;;20.39;29.97;100654.97;4979339;28;20060;-81
2023/03/12 09:19:14;;;;;;;1.30;1.20;;;;;;;20.37;30.04;100656.16;5026851;28;20045;-80
2023/03/12 09:21:40;;;;;;;1.23;1.13;;;;;;;20.22;30.08;100633.22;4997838;28;20034;-81
2023/03/12 09:24:06;;;;;;;1.42;1.08;;;;;;;20.23;30.23;100640.16;5034845;28;20044;-80
2023/03/12 09:26:32;;;;;;;1.50;1.40;;;;;;;20.30;30.17;100671.16;5001961;28;20029;-81
2023/03/12 09:28:58;;;;;;;1.33;1.08;;;;;;;20.20;30.09;100653.75;5033210;28;20041;-81
2023/03/12 09:31:24;;;;;;;1.65;1.10;;;;;;;20.25;30.21;100669.06;4999416;28;20030;-80
2023/03/12 09:33:50;;;;;;;2.28;1.33;;;;;;;20.19;30.10;100656.59;5033089;28;20032;-80
2023/03/12 09:36:16;;;;;;;1.52;1.08;;;;;;;20.25;30.12;100657.66;4995746;28;22666;-81
2023/03/12 09:38:42;;;;;;;1.83;1.17;;;;;;;20.16;30.05;100638.44;5034753;28;20430;-81
2023/03/12 09:41:30;;;;;;;1.13;1.00;;;;;;;20.23;30.16;100656.03;4988497;28;20386;-80
2023/03/12 09:44:11;;;;;;;0.98;0.98;;;;;;;20.19;30.11;100656.59;5038286;28;20119;-81
2023/03/12 09:46:51;;;;;;;;;;;;;;;20.18;30.19;100652.31;4995474;28;20484;-81
2023/03/12 09:49:25;;;;;;;1.27;1.17;;;;;;;20.26;30.35;100654.00;5028393;28;19922;-80
2023/03/12 09:51:55;;;;;;;1.77;1.23;;;;;;;20.44;29.84;100657.09;5047810;28;20034;-81
2023/03/12 09:54:33;;;;;;;1.65;1.25;;;;;;;20.83;29.33;100651.38;5005798;28;20041;-81
2023/03/12 09:57:07;;;;;;;1.42;0.90;;;;;;;21.22;28.73;100639.47;5004785;28;20098;-81
2023/03/12 09:59:35;;;;;;;1.15;1.05;;;;;;;21.17;28.43;100610.88;5035160;28;20048;-81
2023/03/12 10:02:18;;;;;;;1.20;1.10;;;;;;;21.29;28.74;100643.00;5029042;28;20420;-81
2023/03/12 10:04:54;;;;;;;1.10;1.00;;;;;;;21.30;28.64;100655.22;5048319;28;20064;-79
2023/03/12 10:07:30;;;;;;;1.27;1.13;;;;;;;21.21;28.93;100651.06;4997135;28;20056;-80
2023/03/12 10:10:20;;;;;;;1.20;1.13;;;;;;;21.18;29.10;100648.78;5034033;28;20091;-80
2023/03/12 10:13:19;;;;;;;1.08;1.00;;;;;;;21.07;29.16;100650.13;4996562;28;20068;-80
2023/03/12 10:15:55;;;;;;;1.52;1.02;;;;;;;21.03;29.52;100646.25;5046825;28;20041;-81
2023/03/12 10:18:35;;;;;;;1.60;1.50;;;;;;;20.48;30.34;100626.63;4998944;28;20045;-79
2023/03/12 10:21:08;;;;;;;;;;;;;;;20.33;30.62;100625.81;5033731;28;20033;-81
2023/03/12 10:23:39;;;;;;;2.30;1.60;;;;;;;20.16;30.83;100627.88;4997631;28;19924;-81
2023/03/12 10:26:24;;;;;;;1.73;1.55;;;;;;;20.11;30.86;100630.28;5032170;28;20041;-81
2023/03/12 10:28:59;;;;;;;2.35;1.92;;;;;;;19.74;31.13;100579.19;4998430;28;20726;-81
2023/03/12 10:31:33;;;;;;;2.25;1.50;;;;;;;19.81;31.02;100592.50;5036457;28;20077;-81
2023/03/12 10:34:01;;;;;;;2.53;2.33;;;;;;;19.91;31.33;100609.69;4996644;28;20052;-80
2023/03/12 10:36:26;;;;;;;2.70;1.70;;;;;;;20.15;30.98;100607.75;5028915;28;20045;-83
2023/03/12 10:38:52;;;;;;;2.10;1.40;;;;;;;20.23;30.91;100597.84;4994815;28;20060;-83
2023/03/12 10:41:29;;;;;;;2.35;1.40;;;;;;;20.23;30.45;100589.91;5033363;28;20053;-83
2023/03/12 10:43:59;;;;;;;1.25;1.13;;;;;;;20.33;30.25;100594.91;4998164;28;20078;-81
2023/03/12 10:46:36;;;;;;;1.63;1.52;;;;;;;20.45;30.26;100597.88;5033132;28;20057;-82
2023/03/12 10:49:20;;;;;;;1.95;1.50;;;;;;;20.50;30.04;100585.75;4985121;28;20053;-84
2023/03/12 10:52:30;;;;;;;1.70;1.20;;;;;;;20.48;30.06;100582.47;5011963;28;20046;-82
2023/03/12 10:54:55;;;;;;;1.45;1.35;;;;;;;20.45;30.12;100576.72;4998107;28;20045;-82
2023/03/12 10:57:37;;;;;;;1.77;1.67;;;;;;;20.45;30.09;100572.25;4994649;28;20050;-82
2023/03/12 11:00:11;;;;;;;2.40;1.50;;;;;;;20.46;30.10;100565.94;5011707;28;20080;-82
2023/03/12 11:02:44;;;;;;;1.50;1.38;;;;;;;20.37;29.88;100551.22;5031064;28;20037;-82
2023/03/12 11:05:19;;;;;;;1.45;1.30;;;;;;;20.45;30.09;100566.97;5003646;28;20041;-83
2023/03/12 11:07:45;;;;;;;1.75;1.50;;;;;;;20.40;30.09;100568.53;5033629;28;20037;-82
2023/03/12 11:10:10;;;;;;;1.20;1.20;;;;;;;20.40;30.04;100568.53;4994909;28;20041;-83
2023/03/12 11:12:38;;;;;;;2.10;1.25;;;;;;;20.38;30.12;100566.06;5015622;28;20053;-82
2023/03/12 11:15:21;;;;;;;1.90;1.33;;;;;;;20.38;30.25;100560.78;4990602;28;20084;-83
2023/03/12 11:17:47;;;;;;;1.58;1.48;;;;;;;20.22;30.28;100534.59;5027373;28;20068;-84
2023/03/12 11:20:28;;;;;;;1.55;1.17;;;;;;;20.36;30.25;100564.63;4998141;28;20065;-82
2023/03/12 11:22:54;;;;;;;1.20;1.10;;;;;;;20.32;30.42;100566.00;5019907;28;20676;-83
2023/03/12 11:25:23;;;;;;;1.80;1.38;;;;;;;20.31;30.36;100559.91;5005221;28;20073;-84
2023/03/12 11:27:53;;;;;;;1.95;1.48;;;;;;;20.31;30.27;100559.09;5023808;28;20042;-83
2023/03/12 11:30:28;;;;;;;1.60;1.23;;;;;;;20.30;30.20;100560.09;5019311;28;20043;-84
2023/03/12 11:32:56;;;;;;;1.20;1.20;;;;;;;20.23;30.36;100537.03;5026424;28;20041;-84